TAF Text Data
IDs:
Format:
Raw Decoded Include METAR

Data at: 1537 UTC 27 Nov 2021

Region: TOP
KATL 271352Z 2714/2818 32006KT P6SM SKC
  FM271800 27006KT P6SM FEW250
  FM272300 24004KT P6SM FEW250
  FM281000 26006KT P6SM BKN250


KBOS 271422Z 2714/2818 28017G26KT P6SM SCT035
  FM280300 27012G20KT P6SM FEW035
  FM280500 27010KT P6SM SKC
  FM281500 26009KT P6SM BKN100


KBWI 271459Z 2715/2818 30014G25KT P6SM SCT050
  FM272100 28008KT P6SM SCT110
  FM280000 25004KT P6SM BKN080
  FM280600 VRB03KT P6SM OVC040
  FM281600 24004KT P6SM FEW080


KCLE 271449Z 2715/2818 21009KT P6SM OVC025
  FM272000 19008KT 6SM BR VCSH OVC040
  FM272100 19009KT 4SM -SHRASN BR OVC035
  FM280200 17009KT 2SM -SHSN BR OVC023
  FM280600 20007KT 3SM -SHSN OVC017
  FM281300 26006KT 5SM -SHRASN OVC022


KCLT 271355Z 2714/2818 31005KT P6SM SCT250
  FM271600 23006KT P6SM FEW250
  FM272300 20004KT P6SM SKC
  FM281700 26005KT P6SM SCT250


KCVG 271455Z 2715/2818 18009KT P6SM BKN060
  FM271700 19010G18KT P6SM SCT100 BKN150
  FM272200 21008KT P6SM BKN100
  FM280300 24007KT P6SM SCT100
  FM280800 27007KT P6SM SCT250
  FM281200 30008KT P6SM BKN015


KDCA 271459Z 2715/2818 31015G25KT P6SM SCT050
  FM272000 29010KT P6SM FEW130
  FM280000 25005KT P6SM BKN100
  FM280400 19004KT P6SM OVC060
  FM281500 21006KT P6SM SCT250


KDEN 271501Z 2715/2818 15007KT P6SM FEW120 FEW150 SCT220
  FM271600 06010KT P6SM FEW120 BKN220
  FM280000 11008KT P6SM FEW120 BKN220
  FM280300 15009KT P6SM SCT200
  FM280600 20009KT P6SM SKC


KDFW 271508Z 2715/2818 19008KT P6SM BKN100
  FM271700 22013KT P6SM -RA OVC090
  FM272200 20007KT 5SM -RA BR OVC015
  FM280000 20007KT 5SM -RA BR OVC007
  TEMPO 2801/2804 3SM -RA BR OVC004
  FM281000 35008KT P6SM BKN040


KDTW 271442Z 2715/2818 17005KT P6SM SCT045 OVC080
  FM272000 16005KT 5SM -SN SCT025 OVC045
  FM272200 12006KT 1SM -SN BKN008 OVC014
  FM280200 08005KT 3SM -SHSN SCT006 OVC009
  FM280600 02005KT 5SM BR OVC007


KEWR 271441Z 2715/2818 29016G25KT P6SM BKN040
  FM271800 28014G22KT P6SM FEW040 SCT250
  FM280000 28011KT P6SM SCT150 BKN250
  FM280400 25007KT P6SM BKN040
  FM281200 23006KT P6SM VCSH BKN035


KFLL 271453Z 2715/2818 34008KT P6SM SCT035
  FM271900 04008KT P6SM FEW030 SCT050
  FM280100 VRB03KT P6SM FEW035
  FM281600 31006KT P6SM FEW040


KIAD 271459Z 2715/2818 29015G25KT P6SM SCT045
  FM272100 29008KT P6SM SCT090
  FM280000 22004KT P6SM BKN080
  FM280900 14003KT P6SM BKN050
  FM281000 00000KT P6SM BKN060


KIAH 271504Z 2715/2818 00000KT P6SM FEW070 BKN100 OVC250
  FM271700 VRB03KT P6SM -RA SCT060 OVC100
  FM272000 VRB04KT 6SM -SHRA BR BKN050 OVC100
  FM280100 02004KT 4SM -SHRA BR BKN007 OVC015
  FM280600 01004KT 3SM -SHRA BR OVC007
  FM281100 VRB04KT 6SM BR VCSH BKN012 OVC020
  FM281300 36005KT P6SM SCT025 OVC070


KJFK 271441Z 2715/2818 30018G28KT P6SM BKN040
  FM271800 29016G23KT P6SM FEW040 SCT250
  FM280100 28012KT P6SM SCT150 BKN250
  FM280600 26008KT P6SM BKN040
  FM281200 23006KT P6SM VCSH BKN035


KLAS 271445Z 2715/2818 22006KT P6SM FEW250
  FM271700 VRB06KT P6SM FEW250
  FM280200 22006KT P6SM SKC


KLAX 271507Z 2715/2818 VRB03KT P6SM SKC
  FM272000 26008KT P6SM SKC
  FM280300 VRB03KT P6SM SKC


KLGA 271441Z 2715/2818 30017G26KT P6SM BKN040
  FM271800 30015G22KT P6SM FEW040 SCT250
  FM280100 28011KT P6SM SCT150 BKN250
  FM280600 27008KT P6SM BKN040
  FM281200 24007KT P6SM VCSH BKN035


KMCO 271457Z 2715/2818 36007KT P6SM FEW150 FEW250
  FM280000 VRB03KT P6SM SCT150 SCT250
  FM281400 32005KT P6SM FEW100 SCT120 BKN150


KMDW 271449Z 2715/2818 18010KT P6SM VCSH BKN060 OVC100
  TEMPO 2716/2718 6SM -RAPL
  FM271830 20008KT P6SM SCT080 BKN100
  FM272000 23008KT P6SM SCT040 BKN100
  FM272300 29010KT P6SM BKN100
  FM280300 31013G20KT P6SM SCT025


KMEM 271455Z 2715/2818 21010G17KT P6SM FEW250
  FM272300 22006KT P6SM BKN250
  FM280600 26004KT P6SM BKN250
  FM280900 32005KT P6SM BKN250


KMIA 271453Z 2715/2818 34006KT P6SM SCT035
  FM271900 04008KT P6SM FEW030 SCT050
  FM280100 VRB03KT P6SM FEW035
  FM281600 31006KT P6SM FEW040


KMSP 271454Z 2715/2818 35007KT P6SM BKN100
  FM271800 31011KT P6SM FEW035 BKN100
  FM272200 30010KT P6SM SKC


KORD 271448Z 2715/2818 18010KT P6SM VCSH OVC100
  TEMPO 2715/2717 6SM -RAPL
  FM271800 20008KT P6SM SCT080 BKN100
  FM272000 23008KT P6SM SCT040 BKN100
  FM272300 29010KT P6SM BKN100
  FM280300 31013G20KT P6SM SCT025


KPDX 271458Z 2715/2812 12005KT P6SM OVC015
  FM271700 12007KT 5SM -RA SCT015 BKN025 OVC035
  FM272100 12005KT 3SM -RA BR SCT008 BKN015 OVC025 WS020/20030KT
  FM280200 17009KT P6SM -RA SCT015 BKN025 OVC050
  FM280700 18010KT P6SM SCT025 OVC040


KPHL 271435Z 2715/2818 29012G20KT P6SM BKN045
  FM272200 28010KT P6SM BKN250
  FM280100 25006KT P6SM BKN100
  FM280600 VRB03KT P6SM OVC050
  FM281200 26008KT P6SM OVC100


KPHX 271434Z 2715/2818 VRB04KT P6SM SKC
  FM272200 26005KT P6SM SKC
  FM280300 VRB04KT P6SM SKC


KPIT 271455Z 2715/2818 25006KT P6SM BKN025
  FM271800 26008KT P6SM BKN040
  FM280000 15005KT 5SM -SHSN BKN040
  FM280900 20006KT P6SM VCSH BKN025


KSAN 271446Z 2715/2818 VRB04KT P6SM SKC
  FM272000 27007KT P6SM FEW250
  FM280200 VRB03KT P6SM FEW250


KSEA 271450Z 2715/2818 18005KT 5SM -DZ BR BKN006 OVC015
  FM271800 18010KT 5SM -RA BR OVC015
  FM280400 20012G22KT P6SM VCSH BKN020 BKN040 OVC100


KSFO 271450Z 2715/2818 VRB04KT P6SM FEW200
  FM271800 VRB05KT P6SM SCT200
  FM272300 29009KT P6SM SCT200
  FM280700 VRB03KT P6SM SCT200


KSLC 271500Z 2715/2818 15004KT P6SM BKN070 BKN140
  FM271800 32005KT P6SM SCT070 BKN100
  FM280300 15003KT P6SM FEW200


KSTL 271120Z 2712/2818 22005KT P6SM BKN250
  FM280000 28007KT P6SM SKC
  FM280400 32009KT P6SM SKC


KTPA 271515Z 2715/2818 02006KT P6SM FEW250
  FM271900 32007KT P6SM FEW250
  FM280000 VRB03KT P6SM SCT250
  FM281500 06005KT P6SM SCT250